Time;durP1;ratioP1;P1;durP2;ratioP2;P2;SDS_P1;SDS_P2;PMS_P1;PMS_P2;Temp;Humidity;BMP_temperature;BMP_pressure;BME280_temperature;BME280_humidity;BME280_pressure;Samples;Min_cycle;Max_cycle;Signal;HPM_P1;HPM_P2
2022/03/26 00:01:38;;;;;;;52.00;16.25;;;6.10;93.40;;;;;;5018441;28;20050;-70
2022/03/26 00:04:05;;;;;;;64.22;16.60;;;6.10;92.90;;;;;;5018337;28;20050;-70
2022/03/26 00:06:32;;;;;;;54.28;16.83;;;6.10;92.90;;;;;;5004067;28;20052;-71
2022/03/26 00:08:57;;;;;;;58.70;16.58;;;6.00;93.10;;;;;;5029503;28;20084;-70
2022/03/26 00:11:23;;;;;;;59.90;17.70;;;6.00;93.50;;;;;;5032206;28;20053;-69
2022/03/26 00:13:49;;;;;;;53.20;17.50;;;6.00;93.70;;;;;;5030624;28;20068;-69
2022/03/26 00:16:15;;;;;;;54.83;16.67;;;5.80;94.20;;;;;;5034996;28;20054;-70
2022/03/26 00:18:41;;;;;;;59.67;17.67;;;5.80;95.00;;;;;;5033609;28;20054;-70
2022/03/26 00:21:07;;;;;;;57.80;19.20;;;5.80;95.40;;;;;;5030527;28;20103;-70
2022/03/26 00:23:33;;;;;;;53.08;17.70;;;5.70;95.50;;;;;;5030737;28;20081;-70
2022/03/26 00:26:00;;;;;;;63.90;18.55;;;5.60;95.90;;;;;;5023418;28;20057;-70
2022/03/26 00:28:26;;;;;;;62.97;18.08;;;5.60;95.60;;;;;;5019318;28;20105;-71
2022/03/26 00:30:52;;;;;;;54.67;19.10;;;5.70;95.30;;;;;;5016925;28;20073;-69
2022/03/26 00:33:18;;;;;;;57.17;17.58;;;5.60;95.30;;;;;;5016389;28;20060;-69
2022/03/26 00:35:46;;;;;;;56.72;17.92;;;5.70;95.60;;;;;;5016523;28;20129;-69
2022/03/26 00:38:11;;;;;;;;;;;5.70;95.40;;;;;;5015259;28;20486;-69
2022/03/26 00:40:37;;;;;;;62.50;18.20;;;5.70;96.20;;;;;;4997901;28;19921;-69
2022/03/26 00:43:04;;;;;;;60.75;17.88;;;5.70;95.70;;;;;;5014971;28;20441;-69
2022/03/26 00:45:30;;;;;;;62.83;19.92;;;5.70;95.50;;;;;;5015076;28;20045;-70
2022/03/26 00:48:02;;;;;;;73.50;22.05;;;5.70;95.80;;;;;;5013980;28;20057;-69
2022/03/26 00:50:28;;;;;;;58.40;19.73;;;5.60;95.90;;;;;;5013503;28;20088;-69
2022/03/26 00:52:53;;;;;;;63.03;21.27;;;5.60;96.60;;;;;;5014826;28;20104;-69
2022/03/26 00:55:19;;;;;;;70.40;21.85;;;5.50;97.30;;;;;;5013224;28;20060;-70
2022/03/26 00:57:45;;;;;;;63.42;21.10;;;5.50;97.90;;;;;;5015159;28;20143;-69
2022/03/26 01:00:12;;;;;;;63.60;21.08;;;5.40;98.40;;;;;;5014821;28;20096;-69
2022/03/26 01:02:38;;;;;;;66.32;20.33;;;5.30;99.60;;;;;;5014140;28;20132;-69
2022/03/26 01:05:04;;;;;;;69.38;21.80;;;5.30;99.90;;;;;;5014724;28;20052;-69
2022/03/26 01:07:31;;;;;;;65.80;21.48;;;5.20;99.90;;;;;;5014153;28;20045;-69
2022/03/26 01:09:58;;;;;;;62.83;21.33;;;5.20;99.90;;;;;;5014529;28;20054;-69
2022/03/26 01:12:25;;;;;;;72.43;23.58;;;5.10;99.90;;;;;;5014241;28;20485;-70
2022/03/26 01:14:52;;;;;;;76.03;22.25;;;5.00;99.90;;;;;;5013570;28;20056;-69
2022/03/26 01:17:18;;;;;;;67.38;23.70;;;5.00;99.90;;;;;;5014300;28;20054;-70
2022/03/26 01:19:45;;;;;;;68.72;22.10;;;5.00;99.90;;;;;;5019811;28;20367;-70
2022/03/26 01:22:11;;;;;;;69.25;22.77;;;4.90;99.90;;;;;;5013946;28;20062;-72
2022/03/26 01:24:38;;;;;;;69.07;22.97;;;4.90;99.90;;;;;;4996995;28;20056;-70
2022/03/26 01:27:04;;;;;;;74.72;23.42;;;4.90;99.90;;;;;;5014843;28;20101;-70
2022/03/26 01:29:30;;;;;;;69.03;21.83;;;4.90;99.90;;;;;;5013547;28;20045;-70
2022/03/26 01:31:55;;;;;;;69.90;23.00;;;4.90;99.90;;;;;;5013364;28;20038;-70
2022/03/26 01:34:24;;;;;;;70.88;23.42;;;4.90;99.90;;;;;;5012917;28;20046;-69
2022/03/26 01:36:49;;;;;;;69.07;23.00;;;4.90;99.90;;;;;;5013256;28;20056;-71
2022/03/26 01:39:17;;;;;;;82.35;24.05;;;4.80;99.90;;;;;;5014041;28;20046;-69
2022/03/26 01:41:42;;;;;;;;;;;4.80;99.90;;;;;;5013571;28;20118;-69
2022/03/26 01:44:13;;;;;;;75.93;22.17;;;4.80;99.90;;;;;;5013373;28;19932;-69
2022/03/26 01:46:50;;;;;;;68.60;23.50;;;4.70;99.90;;;;;;4996611;28;20152;-69
2022/03/26 01:49:17;;;;;;;70.57;21.83;;;4.70;99.90;;;;;;5012638;28;20458;-70
2022/03/26 01:51:43;;;;;;;81.35;26.15;;;4.70;99.90;;;;;;4996170;28;20141;-70
2022/03/26 01:54:10;;;;;;;83.13;25.17;;;4.70;99.90;;;;;;5013327;28;20141;-69
2022/03/26 01:56:37;;;;;;;95.15;27.85;;;4.60;99.90;;;;;;5013336;28;20046;-69
2022/03/26 01:59:05;;;;;;;83.10;24.48;;;4.60;99.90;;;;;;5013786;28;20056;-69
2022/03/26 02:01:34;;;;;;;95.30;28.13;;;4.60;99.90;;;;;;5012175;28;20037;-69
2022/03/26 02:04:01;;;;;;;89.95;28.15;;;4.50;99.90;;;;;;4995705;28;20050;-69
2022/03/26 02:06:34;;;;;;;90.88;28.27;;;4.60;99.90;;;;;;5012148;28;20097;-69
2022/03/26 02:09:08;;;;;;;91.72;27.25;;;4.60;99.90;;;;;;5013139;28;20506;-69
2022/03/26 02:11:36;;;;;;;81.65;26.80;;;4.50;99.90;;;;;;5012163;28;20550;-69
2022/03/26 02:14:03;;;;;;;91.07;26.85;;;4.40;99.90;;;;;;5011918;28;20049;-69
2022/03/26 02:16:31;;;;;;;88.43;27.40;;;4.40;99.90;;;;;;5012258;28;20073;-70
2022/03/26 02:18:57;;;;;;;86.50;28.23;;;4.40;99.90;;;;;;5012603;28;20064;-70
2022/03/26 02:21:23;;;;;;;92.85;30.35;;;4.40;99.90;;;;;;5013015;28;20494;-71
2022/03/26 02:23:50;;;;;;;96.20;28.58;;;4.40;99.90;;;;;;5012731;28;20061;-70
2022/03/26 02:26:18;;;;;;;106.45;31.08;;;4.40;99.90;;;;;;5011682;28;20075;-72
2022/03/26 02:28:45;;;;;;;102.15;31.73;;;4.40;99.90;;;;;;5011452;28;20539;-69
2022/03/26 02:31:15;;;;;;;104.53;31.38;;;4.30;99.90;;;;;;4995951;28;20042;-69
2022/03/26 02:33:41;;;;;;;100.70;29.48;;;4.30;99.90;;;;;;5013461;28;20128;-69
2022/03/26 02:36:09;;;;;;;108.50;31.80;;;4.30;99.90;;;;;;5012825;28;20042;-69
2022/03/26 02:38:36;;;;;;;109.90;33.20;;;4.30;99.90;;;;;;5011659;28;20191;-69
2022/03/26 02:41:02;;;;;;;117.57;31.23;;;4.30;99.90;;;;;;5011571;28;20077;-69
2022/03/26 02:43:27;;;;;;;108.05;33.33;;;4.30;99.90;;;;;;5012405;28;20057;-69
2022/03/26 02:45:53;;;;;;;114.88;32.25;;;4.40;99.90;;;;;;4995598;28;20115;-69
2022/03/26 02:48:19;;;;;;;121.93;33.53;;;4.20;99.90;;;;;;4994584;28;20045;-69
2022/03/26 02:50:45;;;;;;;109.72;32.63;;;4.20;99.90;;;;;;5011792;28;20045;-70
2022/03/26 02:53:12;;;;;;;103.63;29.67;;;4.20;99.90;;;;;;5011346;28;20124;-69
2022/03/26 02:55:38;;;;;;;98.15;31.08;;;4.10;99.90;;;;;;5012826;28;20147;-69
2022/03/26 02:58:06;;;;;;;88.45;27.20;;;4.00;99.90;;;;;;5012721;28;20054;-69
2022/03/26 03:00:32;;;;;;;88.63;26.80;;;3.90;99.90;;;;;;5011301;28;20054;-70
2022/03/26 03:02:58;;;;;;;81.20;25.42;;;3.90;99.90;;;;;;5012594;28;20053;-68
2022/03/26 03:05:24;;;;;;;87.60;26.70;;;3.80;99.90;;;;;;5012588;28;20053;-69
2022/03/26 03:07:50;;;;;;;95.55;28.02;;;3.80;99.90;;;;;;5012063;28;20486;-70
2022/03/26 03:10:17;;;;;;;83.97;28.27;;;3.80;99.90;;;;;;5012452;28;20046;-70
2022/03/26 03:12:44;;;;;;;100.40;30.30;;;3.70;99.90;;;;;;5015306;28;20046;-70
2022/03/26 03:15:17;;;;;;;100.53;29.15;;;3.60;99.90;;;;;;5011556;28;20776;-71
2022/03/26 03:17:44;;;;;;;103.68;30.50;;;3.60;99.90;;;;;;5012407;28;20073;-69
2022/03/26 03:20:10;;;;;;;103.82;30.13;;;3.60;99.90;;;;;;5012074;28;20407;-69
2022/03/26 03:22:37;;;;;;;103.13;31.08;;;3.50;99.90;;;;;;5012183;28;20319;-69
2022/03/26 03:25:04;;;;;;;111.93;30.70;;;3.50;99.90;;;;;;5012431;28;20057;-69
2022/03/26 03:27:30;;;;;;;;;;;3.40;99.90;;;;;;5011569;28;20092;-71
2022/03/26 03:29:56;;;;;;;106.20;31.02;;;3.40;99.90;;;;;;5011655;28;19973;-70
2022/03/26 03:32:22;;;;;;;103.90;29.55;;;3.40;99.90;;;;;;4994953;28;20425;-72
2022/03/26 03:34:47;;;;;;;111.28;30.88;;;3.40;99.90;;;;;;5011296;28;20050;-70
2022/03/26 03:37:13;;;;;;;93.47;29.42;;;3.30;99.90;;;;;;5012475;28;20359;-72
2022/03/26 03:39:39;;;;;;;102.80;27.23;;;3.30;99.90;;;;;;5011755;28;20058;-70
2022/03/26 03:42:05;;;;;;;97.90;27.10;;;3.10;99.90;;;;;;5012621;28;20045;-69
2022/03/26 03:44:31;;;;;;;102.67;29.33;;;3.10;99.90;;;;;;4996293;28;20161;-69
2022/03/26 03:46:57;;;;;;;111.75;30.30;;;3.10;99.90;;;;;;5014434;28;20121;-71
2022/03/26 03:49:23;;;;;;;110.57;29.80;;;3.00;99.90;;;;;;5011444;28;20573;-70
2022/03/26 03:51:49;;;;;;;105.22;31.33;;;3.00;99.90;;;;;;5012400;28;20081;-69
2022/03/26 03:54:15;;;;;;;126.57;32.17;;;3.00;99.90;;;;;;5011689;28;20093;-69
2022/03/26 03:56:41;;;;;;;117.45;32.28;;;3.00;99.90;;;;;;5012347;28;20046;-70
2022/03/26 03:59:07;;;;;;;126.07;34.10;;;3.00;99.90;;;;;;5012510;28;20046;-69
2022/03/26 04:01:33;;;;;;;122.82;31.92;;;3.00;99.90;;;;;;4978396;28;20072;-69
2022/03/26 04:03:59;;;;;;;120.03;33.00;;;3.00;99.90;;;;;;5011920;28;20116;-69
2022/03/26 04:06:25;;;;;;;142.00;34.60;;;3.00;99.90;;;;;;5012709;28;20042;-70
2022/03/26 04:08:51;;;;;;;129.18;33.50;;;3.00;99.90;;;;;;5014553;28;20037;-70
2022/03/26 04:11:17;;;;;;;133.90;34.67;;;3.00;99.90;;;;;;5015532;28;20069;-68
2022/03/26 04:13:43;;;;;;;143.77;37.33;;;3.00;99.90;;;;;;5015262;28;20053;-69
2022/03/26 04:16:09;;;;;;;125.20;34.58;;;3.10;99.90;;;;;;5015902;28;20046;-69
2022/03/26 04:18:34;;;;;;;138.60;37.20;;;3.00;99.90;;;;;;5015306;28;20565;-69
2022/03/26 04:21:01;;;;;;;146.60;37.72;;;3.10;99.90;;;;;;5015301;28;20084;-69
2022/03/26 04:23:26;;;;;;;137.57;35.28;;;3.00;99.90;;;;;;5015261;28;20136;-70
2022/03/26 04:25:52;;;;;;;139.80;36.17;;;3.00;99.90;;;;;;5015281;28;20085;-69
2022/03/26 04:28:18;;;;;;;140.68;38.40;;;3.00;99.90;;;;;;5015094;28;20040;-69
2022/03/26 04:30:44;;;;;;;148.30;37.63;;;3.00;99.90;;;;;;5013925;28;20098;-70
2022/03/26 04:33:10;;;;;;;146.50;36.33;;;2.90;99.90;;;;;;5013247;28;20405;-70
2022/03/26 04:35:35;;;;;;;134.10;33.47;;;2.90;99.90;;;;;;5013634;28;20048;-69
2022/03/26 04:38:02;;;;;;;123.85;33.50;;;2.80;99.90;;;;;;5014587;28;20050;-69
2022/03/26 04:40:28;;;;;;;123.60;33.10;;;2.70;99.90;;;;;;5014769;28;20141;-69
2022/03/26 04:42:55;;;;;;;136.27;35.05;;;2.70;99.90;;;;;;5014899;28;20406;-70
2022/03/26 04:45:23;;;;;;;128.68;34.35;;;2.70;99.90;;;;;;5013557;28;20088;-69
2022/03/26 04:47:49;;;;;;;127.25;33.75;;;2.70;99.90;;;;;;5014426;28;20053;-70
2022/03/26 04:50:15;;;;;;;131.80;34.08;;;2.70;99.90;;;;;;5014777;28;20053;-70
2022/03/26 04:52:41;;;;;;;135.45;33.83;;;2.70;99.90;;;;;;5012974;28;20054;-69
2022/03/26 04:55:09;;;;;;;140.77;35.15;;;2.60;99.90;;;;;;5013276;28;20387;-69
2022/03/26 04:57:39;;;;;;;144.95;35.97;;;2.60;99.90;;;;;;5013906;28;20398;-71
2022/03/26 05:00:06;;;;;;;146.63;37.33;;;2.60;99.90;;;;;;5015067;28;20351;-69
2022/03/26 05:02:32;;;;;;;170.05;38.88;;;2.70;99.90;;;;;;4997279;28;20053;-69
2022/03/26 05:04:57;;;;;;;151.13;38.65;;;2.70;99.90;;;;;;5014913;28;20465;-69
2022/03/26 05:10:08;;;;;;;164.18;39.08;;;2.70;99.90;;;;;;5012934;28;20153;-70
2022/03/26 05:12:34;;;;;;;165.10;40.15;;;2.70;99.90;;;;;;4980669;28;20058;-71
2022/03/26 05:15:00;;;;;;;147.45;36.95;;;2.70;99.90;;;;;;5013565;28;20056;-69
2022/03/26 05:17:25;;;;;;;162.75;39.60;;;2.60;99.90;;;;;;4996542;28;20485;-71
2022/03/26 05:19:51;;;;;;;179.32;41.47;;;2.70;99.90;;;;;;5013568;28;20247;-69
2022/03/26 05:22:17;;;;;;;161.50;40.38;;;2.70;99.90;;;;;;5012311;28;20046;-69
2022/03/26 05:24:42;;;;;;;171.85;41.63;;;2.70;99.90;;;;;;5012534;28;20516;-69
2022/03/26 05:27:09;;;;;;;165.68;40.38;;;2.70;99.90;;;;;;5013623;28;20045;-71
2022/03/26 05:29:35;;;;;;;161.82;40.25;;;2.80;99.90;;;;;;5012913;28;20089;-69
2022/03/26 05:32:00;;;;;;;175.45;41.63;;;2.80;99.90;;;;;;5013951;28;20493;-69
2022/03/26 05:34:26;;;;;;;158.90;39.90;;;2.80;99.90;;;;;;5012595;28;20104;-69
2022/03/26 05:36:52;;;;;;;177.63;42.33;;;2.80;99.90;;;;;;5012298;28;20574;-70
2022/03/26 05:39:17;;;;;;;177.63;41.63;;;2.80;99.90;;;;;;5013658;28;20058;-69
2022/03/26 05:41:43;;;;;;;161.45;38.85;;;2.90;99.90;;;;;;5012417;28;20102;-69
2022/03/26 05:44:09;;;;;;;168.00;42.08;;;2.90;99.90;;;;;;5012660;28;20053;-69
2022/03/26 05:46:35;;;;;;;173.55;39.80;;;2.90;99.90;;;;;;5014392;28;20418;-69
2022/03/26 05:49:00;;;;;;;164.63;41.58;;;2.90;99.90;;;;;;5013245;28;20403;-69
2022/03/26 05:51:26;;;;;;;177.55;45.58;;;3.00;99.90;;;;;;5018672;28;20044;-70
2022/03/26 05:53:52;;;;;;;185.63;44.03;;;3.10;99.90;;;;;;5012966;28;20068;-68
2022/03/26 05:56:18;;;;;;;171.65;44.25;;;3.30;99.90;;;;;;5030878;28;20085;-69
2022/03/26 05:58:44;;;;;;;181.43;42.33;;;3.30;99.90;;;;;;5027497;28;20478;-71
2022/03/26 06:01:09;;;;;;;185.60;44.80;;;3.30;99.90;;;;;;5013624;28;20042;-69
2022/03/26 06:03:35;;;;;;;180.07;43.60;;;3.30;99.90;;;;;;5012300;28;20450;-69
2022/03/26 06:06:01;;;;;;;168.07;43.08;;;3.40;99.90;;;;;;5012340;28;20041;-69
2022/03/26 06:08:26;;;;;;;177.32;43.97;;;3.40;99.90;;;;;;4995535;28;20041;-70
2022/03/26 06:10:52;;;;;;;179.75;44.08;;;3.40;99.90;;;;;;5012892;28;20045;-69
2022/03/26 06:13:18;;;;;;;187.88;42.63;;;3.40;99.90;;;;;;5012394;28;20050;-69
2022/03/26 06:15:43;;;;;;;182.73;42.78;;;3.50;99.90;;;;;;5012052;28;20046;-69
2022/03/26 06:18:10;;;;;;;203.75;47.03;;;3.50;99.90;;;;;;5011988;28;20049;-69
2022/03/26 06:20:36;;;;;;;198.23;47.75;;;3.60;99.90;;;;;;5011959;28;20046;-69
2022/03/26 06:23:02;;;;;;;237.55;53.42;;;3.70;99.90;;;;;;5011896;28;20121;-69
2022/03/26 06:25:28;;;;;;;220.30;54.43;;;3.90;99.90;;;;;;5013169;28;20049;-69
2022/03/26 06:27:54;;;;;;;231.05;54.00;;;3.90;99.90;;;;;;5013369;28;20725;-70
2022/03/26 06:30:19;;;;;;;233.02;54.50;;;4.10;99.90;;;;;;5012314;28;20056;-70
2022/03/26 06:32:46;;;;;;;237.27;55.88;;;4.20;99.90;;;;;;5013531;28;20096;-70
2022/03/26 06:35:11;;;;;;;242.05;56.70;;;4.30;99.90;;;;;;5012498;28;20045;-70
2022/03/26 06:37:37;;;;;;;255.10;58.35;;;4.40;99.90;;;;;;5012502;28;20049;-70
2022/03/26 06:40:04;;;;;;;259.65;63.15;;;4.60;99.90;;;;;;5015429;28;20501;-70
2022/03/26 06:42:29;;;;;;;261.27;59.92;;;4.80;99.90;;;;;;4995998;28;20046;-70
2022/03/26 06:44:59;;;;;;;271.17;65.13;;;4.90;99.90;;;;;;5011909;28;20180;-69
2022/03/26 06:47:28;;;;;;;265.98;62.95;;;5.00;99.90;;;;;;5011496;28;20437;-71
2022/03/26 06:49:57;;;;;;;263.45;59.92;;;5.10;99.90;;;;;;5012003;28;20089;-69
2022/03/26 06:52:24;;;;;;;252.50;59.38;;;5.20;99.90;;;;;;4996046;28;20045;-70
2022/03/26 06:54:50;;;;;;;269.05;62.97;;;5.30;99.90;;;;;;5011215;28;20072;-70
2022/03/26 06:57:16;;;;;;;262.00;61.90;;;5.30;99.90;;;;;;5012901;28;20057;-70
2022/03/26 06:59:42;;;;;;;258.90;62.63;;;5.40;99.90;;;;;;5011922;28;20053;-70
2022/03/26 07:02:07;;;;;;;260.15;61.72;;;5.60;99.90;;;;;;4995220;28;20052;-71
2022/03/26 07:04:33;;;;;;;255.80;61.55;;;5.60;99.90;;;;;;5011568;28;20092;-69
2022/03/26 07:06:59;;;;;;;262.02;64.13;;;5.70;99.90;;;;;;5012825;28;20125;-70
2022/03/26 07:09:25;;;;;;;256.25;62.47;;;5.80;99.90;;;;;;5011096;28;20042;-69
2022/03/26 07:11:51;;;;;;;258.08;60.47;;;6.00;99.90;;;;;;5012465;28;20052;-70
2022/03/26 07:14:17;;;;;;;253.15;63.53;;;6.10;99.90;;;;;;5012603;28;20046;-72
2022/03/26 07:16:44;;;;;;;252.52;61.78;;;6.20;99.90;;;;;;4994725;28;20515;-70
2022/03/26 07:19:10;;;;;;;250.25;60.88;;;6.30;99.90;;;;;;5011683;28;20089;-70
2022/03/26 07:21:37;;;;;;;289.67;76.17;;;6.50;99.90;;;;;;5012834;28;20049;-70
2022/03/26 07:24:04;;;;;;;257.15;62.33;;;6.90;99.90;;;;;;5011176;28;20053;-69
2022/03/26 07:26:30;;;;;;;243.88;58.83;;;6.90;99.90;;;;;;5012558;28;20050;-69
2022/03/26 07:28:56;;;;;;;259.50;60.67;;;7.00;99.90;;;;;;5012828;28;20046;-70
2022/03/26 07:31:23;;;;;;;248.43;59.58;;;7.10;99.90;;;;;;5011014;28;20401;-69
2022/03/26 07:33:49;;;;;;;243.27;60.97;;;7.20;99.90;;;;;;5012534;28;20054;-71
2022/03/26 07:36:15;;;;;;;242.13;63.50;;;7.40;99.90;;;;;;5012144;28;20482;-69
2022/03/26 07:38:41;;;;;;;229.05;58.88;;;7.60;99.90;;;;;;5011300;28;20050;-70
2022/03/26 07:41:07;;;;;;;234.70;61.47;;;7.70;99.90;;;;;;5012471;28;20041;-70
2022/03/26 07:43:34;;;;;;;204.35;55.08;;;7.90;99.90;;;;;;5015864;28;20103;-69
2022/03/26 07:46:00;;;;;;;227.50;60.47;;;8.00;99.90;;;;;;5015900;28;20486;-70
2022/03/26 07:48:25;;;;;;;214.82;56.45;;;8.10;99.90;;;;;;5015641;28;20296;-70
2022/03/26 07:50:51;;;;;;;205.35;54.35;;;8.30;99.90;;;;;;5015749;28;20042;-72
2022/03/26 07:53:17;;;;;;;194.50;49.85;;;8.30;99.90;;;;;;5015532;28;20076;-70
2022/03/26 07:55:43;;;;;;;204.80;56.47;;;8.40;99.90;;;;;;5015364;28;20425;-69
2022/03/26 07:58:09;;;;;;;205.25;50.88;;;8.60;99.90;;;;;;5016008;28;20049;-69
2022/03/26 08:00:35;;;;;;;190.02;50.25;;;8.80;99.90;;;;;;5014567;28;20041;-69
2022/03/26 08:03:01;;;;;;;185.45;49.47;;;8.90;99.90;;;;;;5015264;28;20157;-69
2022/03/26 08:05:27;;;;;;;176.25;48.83;;;9.00;99.90;;;;;;5015682;28;20046;-70
2022/03/26 08:07:53;;;;;;;184.45;48.65;;;9.20;99.90;;;;;;4998478;28;20485;-71
2022/03/26 08:10:18;;;;;;;178.30;46.92;;;9.40;99.90;;;;;;5015823;28;20046;-69
2022/03/26 08:12:44;;;;;;;179.68;45.65;;;9.70;99.90;;;;;;5013692;28;20115;-68
2022/03/26 08:15:10;;;;;;;163.50;44.30;;;9.70;99.90;;;;;;5015472;28;20046;-68
2022/03/26 08:17:35;;;;;;;148.57;40.58;;;9.90;99.90;;;;;;5015377;28;20050;-69
2022/03/26 08:20:02;;;;;;;152.68;44.50;;;9.90;99.90;;;;;;4997299;28;20080;-69
2022/03/26 08:22:28;;;;;;;147.93;40.10;;;10.20;99.90;;;;;;5015074;28;20056;-69
2022/03/26 08:24:54;;;;;;;155.20;42.13;;;10.30;99.90;;;;;;5015796;28;20671;-70
2022/03/26 08:27:22;;;;;;;148.15;43.15;;;10.40;99.90;;;;;;5014478;28;20045;-71
2022/03/26 08:29:49;;;;;;;129.55;36.17;;;10.60;99.90;;;;;;5015336;28;20440;-71
2022/03/26 08:32:15;;;;;;;124.97;35.75;;;10.80;99.90;;;;;;5014948;28;20092;-69
2022/03/26 08:34:41;;;;;;;145.00;42.45;;;10.90;99.90;;;;;;5014363;28;20427;-69
2022/03/26 08:37:07;;;;;;;138.70;43.20;;;11.10;99.90;;;;;;4997911;28;20517;-69
2022/03/26 08:39:32;;;;;;;124.82;37.80;;;11.20;99.90;;;;;;5015271;28;20041;-68
2022/03/26 08:41:58;;;;;;;135.50;41.40;;;11.30;99.90;;;;;;5014789;28;20493;-69
2022/03/26 08:44:24;;;;;;;129.40;38.22;;;11.40;99.90;;;;;;5016263;28;20478;-69
2022/03/26 08:46:50;;;;;;;143.05;43.10;;;11.40;99.90;;;;;;5016781;28;20038;-70
2022/03/26 08:49:16;;;;;;;137.65;37.95;;;11.60;99.90;;;;;;5014093;28;20226;-69
2022/03/26 08:51:41;;;;;;;132.75;36.60;;;11.60;99.90;;;;;;4982629;28;20113;-70
2022/03/26 08:54:07;;;;;;;130.63;38.63;;;11.70;99.90;;;;;;5014756;28;20155;-70
2022/03/26 08:56:33;;;;;;;133.05;39.55;;;11.70;99.90;;;;;;5014416;28;20046;-71
2022/03/26 08:58:58;;;;;;;128.95;39.58;;;12.00;99.90;;;;;;5014774;28;20046;-71
2022/03/26 09:01:24;;;;;;;111.68;33.28;;;12.10;99.90;;;;;;5014754;28;20045;-70
2022/03/26 09:03:50;;;;;;;118.20;37.25;;;12.10;99.90;;;;;;5015392;28;20100;-69
2022/03/26 09:06:16;;;;;;;102.90;31.85;;;12.40;99.90;;;;;;5014226;28;20068;-69
2022/03/26 09:08:42;;;;;;;111.15;31.83;;;12.60;98.80;;;;;;4997118;28;20054;-70
2022/03/26 09:11:08;;;;;;;107.60;32.53;;;12.50;98.80;;;;;;4996761;28;20049;-71
2022/03/26 09:13:34;;;;;;;104.07;30.70;;;12.60;97.40;;;;;;5013253;28;20046;-70
2022/03/26 09:16:00;;;;;;;99.78;28.65;;;12.60;99.20;;;;;;5014154;28;20042;-71
2022/03/26 09:18:27;;;;;;;107.07;29.77;;;12.70;97.90;;;;;;5014559;28;20101;-69
2022/03/26 09:20:53;;;;;;;115.45;36.15;;;12.70;98.00;;;;;;5012984;28;20653;-69
2022/03/26 09:23:19;;;;;;;110.65;32.78;;;12.80;96.40;;;;;;5013042;28;20049;-69
2022/03/26 09:25:45;;;;;;;106.30;32.75;;;12.80;98.20;;;;;;5014623;28;20343;-69
2022/03/26 09:28:10;;;;;;;109.30;35.20;;;12.90;98.30;;;;;;4996457;28;20373;-70
2022/03/26 09:30:36;;;;;;;110.90;33.95;;;13.20;96.10;;;;;;5013287;28;20038;-69
2022/03/26 09:33:03;;;;;;;109.55;34.22;;;13.20;96.40;;;;;;5012589;28;20497;-69
2022/03/26 09:35:29;;;;;;;100.65;30.10;;;13.30;96.60;;;;;;5013959;28;20124;-70
2022/03/26 09:37:55;;;;;;;90.45;27.30;;;13.40;93.80;;;;;;5013053;28;20434;-70
2022/03/26 09:40:22;;;;;;;78.38;25.80;;;13.50;93.90;;;;;;5013624;28;20076;-71
2022/03/26 09:42:49;;;;;;;;;;;13.50;91.90;;;;;;4998851;28;20065;-70
2022/03/26 09:45:16;;;;;;;66.47;18.35;;;13.60;91.30;;;;;;5014611;28;20302;-70
2022/03/26 09:47:42;;;;;;;79.57;21.20;;;13.70;91.10;;;;;;5015545;28;20050;-71
2022/03/26 09:50:09;;;;;;;69.07;20.70;;;13.70;91.00;;;;;;4998085;28;20379;-70
2022/03/26 09:52:36;;;;;;;59.28;15.57;;;13.80;89.50;;;;;;5015356;28;20068;-69
2022/03/26 09:55:03;;;;;;;55.00;15.23;;;13.90;90.40;;;;;;4997353;28;20132;-70
2022/03/26 09:57:29;;;;;;;72.30;21.63;;;14.00;89.40;;;;;;5014026;28;20447;-70
2022/03/26 09:59:56;;;;;;;70.47;21.23;;;14.00;86.70;;;;;;4996848;28;20048;-69
2022/03/26 10:02:21;;;;;;;;;;;14.10;88.90;;;;;;5012607;28;20049;-70
2022/03/26 10:04:47;;;;;;;68.60;19.47;;;14.20;87.90;;;;;;5011393;28;19921;-69
2022/03/26 10:07:13;;;;;;;62.63;20.45;;;14.20;89.10;;;;;;4995437;28;20441;-71
2022/03/26 10:09:46;;;;;;;67.53;20.35;;;14.30;89.10;;;;;;5013975;28;20076;-70
2022/03/26 10:12:15;;;;;;;75.15;23.02;;;14.30;90.70;;;;;;4995924;28;20046;-69
2022/03/26 10:14:42;;;;;;;69.32;22.60;;;14.40;90.60;;;;;;5011932;28;20061;-70
2022/03/26 10:17:15;;;;;;;70.65;24.25;;;14.40;90.50;;;;;;5011883;28;20081;-70
2022/03/26 10:20:07;;;;;;;69.55;21.60;;;14.50;91.60;;;;;;5014107;28;20384;-70
2022/03/26 10:22:38;;;;;;;64.93;22.25;;;14.70;91.50;;;;;;5014126;28;20058;-70
2022/03/26 10:25:22;;;;;;;66.80;23.30;;;14.60;90.80;;;;;;5014420;28;20084;-70
2022/03/26 10:27:51;;;;;;;65.82;24.95;;;14.70;92.10;;;;;;4998220;28;20054;-69
2022/03/26 10:32:39;;;;;;;68.10;27.48;;;14.70;92.40;;;;;;4997485;28;20061;-70
2022/03/26 10:33:30;;;;;;;72.75;28.55;;;14.70;91.80;;;;;;5014247;28;20133;-70
2022/03/26 10:35:57;;;;;;;68.15;25.88;;;14.70;92.40;;;;;;4997504;28;20057;-70
2022/03/26 10:38:30;;;;;;;73.35;26.40;;;14.80;93.00;;;;;;5014067;28;20089;-69
2022/03/26 10:41:07;;;;;;;73.03;27.15;;;14.80;93.40;;;;;;5014377;28;20046;-70
2022/03/26 10:43:34;;;;;;;77.45;29.33;;;15.00;94.20;;;;;;5014718;28;20136;-71
2022/03/26 10:46:01;;;;;;;65.13;28.15;;;15.00;94.30;;;;;;4997390;28;20116;-71
2022/03/26 10:48:28;;;;;;;;;;;15.10;95.30;;;;;;5013504;28;20045;-70
2022/03/26 10:50:58;;;;;;;;;;;15.00;94.90;;;;;;5012938;28;20360;-70
2022/03/26 10:53:39;;;;;;;58.85;28.25;;;15.00;95.60;;;;;;5010913;28;20357;-68
2022/03/26 10:56:07;;;;;;;65.28;25.23;;;15.00;96.10;;;;;;5012025;28;20050;-69
2022/03/26 10:58:34;;;;;;;68.45;25.05;;;15.10;96.00;;;;;;5012007;28;20065;-69
2022/03/26 11:01:00;;;;;;;59.40;24.40;;;15.10;96.40;;;;;;5011555;28;20052;-69
2022/03/26 11:03:26;;;;;;;55.53;22.33;;;15.20;96.20;;;;;;5012536;28;20042;-69
2022/03/26 11:05:54;;;;;;;57.10;26.83;;;15.30;96.50;;;;;;5012688;28;20057;-69
2022/03/26 11:08:22;;;;;;;61.55;25.23;;;15.30;95.70;;;;;;5012489;28;20125;-69
2022/03/26 11:10:50;;;;;;;61.63;25.73;;;15.30;95.80;;;;;;4994877;28;20143;-70
2022/03/26 11:13:18;;;;;;;60.35;25.77;;;15.40;95.50;;;;;;5011193;28;20045;-70
2022/03/26 11:15:53;;;;;;;61.42;22.67;;;15.30;95.70;;;;;;5012869;28;20049;-71
2022/03/26 11:18:30;;;;;;;66.13;28.55;;;15.40;96.10;;;;;;5019033;28;20162;-69
2022/03/26 11:21:17;;;;;;;55.20;21.77;;;15.50;96.20;;;;;;5021256;28;20046;-70
2022/03/26 11:23:48;;;;;;;52.92;21.15;;;15.50;96.60;;;;;;5017371;28;20057;-68
2022/03/26 11:26:26;;;;;;;57.28;24.92;;;15.50;96.20;;;;;;5017982;28;20506;-69
2022/03/26 11:29:18;;;;;;;63.35;24.75;;;15.50;96.00;;;;;;5017559;28;20050;-70
2022/03/26 11:31:55;;;;;;;56.08;21.85;;;15.50;96.60;;;;;;5017775;28;20057;-70
2022/03/26 11:34:21;;;;;;;51.92;21.20;;;15.60;97.00;;;;;;5018395;28;20442;-69
2022/03/26 11:36:51;;;;;;;47.08;18.45;;;15.80;97.00;;;;;;4984591;28;20172;-70
2022/03/26 11:39:19;;;;;;;47.17;18.92;;;15.80;96.20;;;;;;5016328;28;20152;-68
2022/03/26 11:41:46;;;;;;;41.17;18.35;;;15.80;95.60;;;;;;5020498;28;20104;-69
2022/03/26 11:44:15;;;;;;;45.55;21.88;;;15.80;95.40;;;;;;5020887;28;20050;-69
2022/03/26 11:52:35;;;;;;;45.85;20.20;;;15.80;95.40;;;;;;5007914;28;19955;-69
2022/03/26 11:55:24;;;;;;;38.17;16.35;;;16.00;94.90;;;;;;5018550;28;20078;-69
2022/03/26 11:58:12;;;;;;;36.42;16.55;;;16.00;94.90;;;;;;5018442;28;20439;-70
2022/03/26 12:00:53;;;;;;;40.20;18.77;;;16.00;93.60;;;;;;5020127;28;20355;-70
2022/03/26 12:03:26;;;;;;;44.70;18.35;;;16.00;93.90;;;;;;5019621;28;20054;-69
2022/03/26 12:08:57;;;;;;;34.33;15.25;;;16.00;94.40;;;;;;5023154;28;20053;-69
2022/03/26 12:11:27;;;;;;;38.90;16.98;;;16.30;94.40;;;;;;5018176;28;20054;-69
2022/03/26 12:14:23;;;;;;;29.10;12.65;;;16.30;93.60;;;;;;5016342;28;20049;-70
2022/03/26 12:16:54;;;;;;;40.15;17.48;;;16.30;93.30;;;;;;5012289;28;20061;-69
2022/03/26 12:19:50;;;;;;;34.90;15.27;;;16.10;92.00;;;;;;5015176;28;20557;-70
2022/03/26 12:22:32;;;;;;;41.65;19.55;;;16.20;93.50;;;;;;5014368;28;20640;-69
2022/03/26 12:25:03;;;;;;;39.03;17.38;;;16.20;92.80;;;;;;5014847;28;20076;-69
2022/03/26 12:27:29;;;;;;;39.30;16.95;;;16.10;92.30;;;;;;5013916;28;20077;-69
2022/03/26 12:29:56;;;;;;;39.40;16.85;;;16.10;93.10;;;;;;5014241;28;20053;-69
2022/03/26 12:32:30;;;;;;;35.65;15.60;;;16.20;93.40;;;;;;5015347;28;20045;-69
2022/03/26 12:34:59;;;;;;;36.33;16.67;;;16.30;92.90;;;;;;5013929;28;20235;-68
2022/03/26 12:37:25;;;;;;;36.45;15.35;;;16.40;93.10;;;;;;5013399;28;20080;-70
2022/03/26 12:39:55;;;;;;;33.40;14.57;;;16.40;92.20;;;;;;4998875;28;20062;-70
2022/03/26 12:42:23;;;;;;;35.00;15.05;;;16.40;92.90;;;;;;5016536;28;20402;-70
2022/03/26 12:44:49;;;;;;;26.25;13.18;;;16.50;92.30;;;;;;5014722;28;20042;-70